sensor_id;sensor_type;location;lat;lon;timestamp;pressure;altitude;pressure_sealevel;temperature;humidity
68137;BME280;54939;50.826;9.030;2024-01-07T00:00:26;98342.66;;;8.03;72.64
68137;BME280;54939;50.826;9.030;2024-01-07T00:00:56;98334.88;;;8.02;73.17
68137;BME280;54939;50.826;9.030;2024-01-07T00:01:27;98346.16;;;8.04;73.36
68137;BME280;54939;50.826;9.030;2024-01-07T00:01:57;98347.16;;;8.03;73.47
68137;BME280;54939;50.826;9.030;2024-01-07T00:02:27;98348.16;;;8.02;73.33
68137;BME280;54939;50.826;9.030;2024-01-07T00:02:57;98342.66;;;8.03;72.91
68137;BME280;54939;50.826;9.030;2024-01-07T00:03:27;98346.31;;;8.02;73.04
68137;BME280;54939;50.826;9.030;2024-01-07T00:03:58;98350.66;;;8.03;73.31
68137;BME280;54939;50.826;9.030;2024-01-07T00:04:28;98351.63;;;8.02;73.00
68137;BME280;54939;50.826;9.030;2024-01-07T00:04:58;98348.16;;;8.02;72.70
68137;BME280;54939;50.826;9.030;2024-01-07T00:05:28;98350.66;;;8.03;73.01
68137;BME280;54939;50.826;9.030;2024-01-07T00:05:59;98348.97;;;8.02;72.84
68137;BME280;54939;50.826;9.030;2024-01-07T00:06:29;98357.78;;;8.03;73.19
68137;BME280;54939;50.826;9.030;2024-01-07T00:06:59;98346.16;;;8.04;73.14
68137;BME280;54939;50.826;9.030;2024-01-07T00:07:29;98353.31;;;8.03;72.78
68137;BME280;54939;50.826;9.030;2024-01-07T00:08:00;98356.81;;;8.04;73.29
68137;BME280;54939;50.826;9.030;2024-01-07T00:08:30;98351.47;;;8.04;72.80
68137;BME280;54939;50.826;9.030;2024-01-07T00:09:00;98355.13;;;8.03;73.04
68137;BME280;54939;50.826;9.030;2024-01-07T00:09:30;98352.47;;;8.03;73.44
68137;BME280;54939;50.826;9.030;2024-01-07T00:10:00;98353.47;;;8.02;73.00
68137;BME280;54939;50.826;9.030;2024-01-07T00:10:31;98355.13;;;8.03;73.15
68137;BME280;54939;50.826;9.030;2024-01-07T00:11:01;98362.13;;;8.04;73.50
68137;BME280;54939;50.826;9.030;2024-01-07T00:11:31;98351.63;;;8.02;73.05
68137;BME280;54939;50.826;9.030;2024-01-07T00:12:01;98360.44;;;8.03;73.13
68137;BME280;54939;50.826;9.030;2024-01-07T00:12:31;98360.75;;;8.00;73.36
68137;BME280;54939;50.826;9.030;2024-01-07T00:13:02;98357.94;;;8.01;73.75
68137;BME280;54939;50.826;9.030;2024-01-07T00:13:32;98357.94;;;8.01;73.23
68137;BME280;54939;50.826;9.030;2024-01-07T00:14:02;98358.78;;;8.02;73.21
68137;BME280;54939;50.826;9.030;2024-01-07T00:14:35;98361.44;;;8.02;73.29
68137;BME280;54939;50.826;9.030;2024-01-07T00:15:05;98360.44;;;8.03;73.80
68137;BME280;54939;50.826;9.030;2024-01-07T00:15:37;98357.94;;;8.01;73.17
68137;BME280;54939;50.826;9.030;2024-01-07T00:16:08;98359.59;;;8.02;72.80
68137;BME280;54939;50.826;9.030;2024-01-07T00:16:39;98366.75;;;8.02;72.79
68137;BME280;54939;50.826;9.030;2024-01-07T00:17:10;98365.94;;;8.01;72.80
68137;BME280;54939;50.826;9.030;2024-01-07T00:17:40;98364.91;;;8.02;72.90
68137;BME280;54939;50.826;9.030;2024-01-07T00:18:10;98364.91;;;8.02;72.77
68137;BME280;54939;50.826;9.030;2024-01-07T00:18:40;98364.91;;;8.02;73.09
68137;BME280;54939;50.826;9.030;2024-01-07T00:19:11;98367.56;;;8.02;73.47
68137;BME280;54939;50.826;9.030;2024-01-07T00:19:41;98368.41;;;8.03;73.43
68137;BME280;54939;50.826;9.030;2024-01-07T00:20:11;98367.56;;;8.02;73.15
68137;BME280;54939;50.826;9.030;2024-01-07T00:20:42;98362.25;;;8.02;73.28
68137;BME280;54939;50.826;9.030;2024-01-07T00:21:12;98367.56;;;8.02;72.87
68137;BME280;54939;50.826;9.030;2024-01-07T00:21:42;98359.78;;;8.01;72.86
68137;BME280;54939;50.826;9.030;2024-01-07T00:22:12;98364.25;;;8.00;72.63
68137;BME280;54939;50.826;9.030;2024-01-07T00:22:42;98367.75;;;8.01;73.24
68137;BME280;54939;50.826;9.030;2024-01-07T00:23:13;98357.13;;;8.01;73.24
68137;BME280;54939;50.826;9.030;2024-01-07T00:23:43;98361.44;;;8.02;73.01
68137;BME280;54939;50.826;9.030;2024-01-07T00:24:13;98368.59;;;8.01;73.21
68137;BME280;54939;50.826;9.030;2024-01-07T00:24:43;98367.75;;;8.01;73.50
68137;BME280;54939;50.826;9.030;2024-01-07T00:25:13;98366.75;;;8.02;72.96
68137;BME280;54939;50.826;9.030;2024-01-07T00:25:44;98364.91;;;8.02;73.31
68137;BME280;54939;50.826;9.030;2024-01-07T00:26:14;98362.44;;;8.01;73.42
68137;BME280;54939;50.826;9.030;2024-01-07T00:26:44;98368.59;;;8.01;73.10
68137;BME280;54939;50.826;9.030;2024-01-07T00:27:14;98363.28;;;8.01;72.95
68137;BME280;54939;50.826;9.030;2024-01-07T00:27:44;98370.22;;;8.02;73.12
68137;BME280;54939;50.826;9.030;2024-01-07T00:28:15;98368.59;;;8.01;73.23
68137;BME280;54939;50.826;9.030;2024-01-07T00:28:45;98365.94;;;8.01;73.18
68137;BME280;54939;50.826;9.030;2024-01-07T00:29:15;98367.88;;;7.99;73.19
68137;BME280;54939;50.826;9.030;2024-01-07T00:29:45;98365.94;;;8.01;73.02
68137;BME280;54939;50.826;9.030;2024-01-07T00:30:16;98370.41;;;8.01;73.24
68137;BME280;54939;50.826;9.030;2024-01-07T00:30:46;98370.22;;;8.02;72.94
68137;BME280;54939;50.826;9.030;2024-01-07T00:31:16;98366.75;;;8.02;73.12
68137;BME280;54939;50.826;9.030;2024-01-07T00:31:46;98366.75;;;8.02;73.26
68137;BME280;54939;50.826;9.030;2024-01-07T00:32:16;98370.22;;;8.02;73.43
68137;BME280;54939;50.826;9.030;2024-01-07T00:32:47;98367.75;;;8.01;72.69
68137;BME280;54939;50.826;9.030;2024-01-07T00:33:17;98366.75;;;8.02;73.23
68137;BME280;54939;50.826;9.030;2024-01-07T00:33:47;98373.91;;;8.01;73.56
68137;BME280;54939;50.826;9.030;2024-01-07T00:34:17;98370.41;;;8.01;73.31
68137;BME280;54939;50.826;9.030;2024-01-07T00:34:48;98365.94;;;8.01;72.42
68137;BME280;54939;50.826;9.030;2024-01-07T00:35:18;98371.25;;;8.01;72.88
68137;BME280;54939;50.826;9.030;2024-01-07T00:35:48;98367.56;;;8.02;72.94
68137;BME280;54939;50.826;9.030;2024-01-07T00:36:19;98372.09;;;8.02;72.85
68137;BME280;54939;50.826;9.030;2024-01-07T00:36:49;98368.59;;;8.01;72.77
68137;BME280;54939;50.826;9.030;2024-01-07T00:37:19;98370.22;;;8.02;72.92
68137;BME280;54939;50.826;9.030;2024-01-07T00:37:49;98375.72;;;8.01;73.20
68137;BME280;54939;50.826;9.030;2024-01-07T00:38:19;98375.72;;;8.01;73.09
68137;BME280;54939;50.826;9.030;2024-01-07T00:38:50;98366.06;;;8.00;72.95
68137;BME280;54939;50.826;9.030;2024-01-07T00:39:20;98371.38;;;8.00;73.23
68137;BME280;54939;50.826;9.030;2024-01-07T00:39:51;98364.25;;;8.00;72.59
68137;BME280;54939;50.826;9.030;2024-01-07T00:40:21;98368.59;;;8.01;72.84
68137;BME280;54939;50.826;9.030;2024-01-07T00:40:51;98364.09;;;8.02;73.12
68137;BME280;54939;50.826;9.030;2024-01-07T00:41:21;98363.28;;;8.01;73.08
68137;BME280;54939;50.826;9.030;2024-01-07T00:41:52;98366.91;;;8.00;72.89
68137;BME280;54939;50.826;9.030;2024-01-07T00:42:22;98372.22;;;8.00;72.96
68137;BME280;54939;50.826;9.030;2024-01-07T00:42:52;98370.41;;;8.01;73.10
68137;BME280;54939;50.826;9.030;2024-01-07T00:43:22;98368.72;;;8.00;73.22
68137;BME280;54939;50.826;9.030;2024-01-07T00:43:52;98369.69;;;7.99;72.98
68137;BME280;54939;50.826;9.030;2024-01-07T00:44:23;98374.03;;;8.00;73.36
68137;BME280;54939;50.826;9.030;2024-01-07T00:44:53;98373.19;;;7.99;73.02
68137;BME280;54939;50.826;9.030;2024-01-07T00:45:23;98367.88;;;7.99;72.58
68137;BME280;54939;50.826;9.030;2024-01-07T00:45:53;98372.34;;;7.99;72.98
68137;BME280;54939;50.826;9.030;2024-01-07T00:46:23;98375.03;;;7.99;73.09
68137;BME280;54939;50.826;9.030;2024-01-07T00:46:54;98369.69;;;7.99;72.38
68137;BME280;54939;50.826;9.030;2024-01-07T00:47:24;98368.88;;;7.98;73.14
68137;BME280;54939;50.826;9.030;2024-01-07T00:47:54;98374.19;;;7.98;72.79
68137;BME280;54939;50.826;9.030;2024-01-07T00:48:25;98374.19;;;7.98;73.41
68137;BME280;54939;50.826;9.030;2024-01-07T00:48:55;98375.84;;;7.99;72.68
68137;BME280;54939;50.826;9.030;2024-01-07T00:49:25;98375.03;;;7.99;72.95
68137;BME280;54939;50.826;9.030;2024-01-07T00:49:57;98371.53;;;7.98;72.82
68137;BME280;54939;50.826;9.030;2024-01-07T00:50:28;98375.16;;;7.97;72.77
68137;BME280;54939;50.826;9.030;2024-01-07T00:50:58;98375.84;;;7.99;72.92
68137;BME280;54939;50.826;9.030;2024-01-07T00:51:28;98376.84;;;7.98;73.27
68137;BME280;54939;50.826;9.030;2024-01-07T00:51:58;98376.00;;;7.98;72.69
68137;BME280;54939;50.826;9.030;2024-01-07T00:52:31;98382.16;;;7.98;72.81
68137;BME280;54939;50.826;9.030;2024-01-07T00:53:01;98376.84;;;7.98;72.72
68137;BME280;54939;50.826;9.030;2024-01-07T00:53:31;98382.16;;;7.98;73.38
68137;BME280;54939;50.826;9.030;2024-01-07T00:54:02;98376.84;;;7.98;73.06
68137;BME280;54939;50.826;9.030;2024-01-07T00:54:32;98376.84;;;7.98;73.01
68137;BME280;54939;50.826;9.030;2024-01-07T00:55:05;98389.16;;;7.99;72.69
68137;BME280;54939;50.826;9.030;2024-01-07T00:55:36;98383.84;;;7.99;73.42
68137;BME280;54939;50.826;9.030;2024-01-07T00:56:06;98383.13;;;7.97;72.86
68137;BME280;54939;50.826;9.030;2024-01-07T00:56:39;98386.63;;;7.98;72.46
68137;BME280;54939;50.826;9.030;2024-01-07T00:57:11;98389.28;;;7.98;73.16
68137;BME280;54939;50.826;9.030;2024-01-07T00:57:42;98378.66;;;7.98;73.02
68137;BME280;54939;50.826;9.030;2024-01-07T00:58:12;98383.13;;;7.97;73.15
68137;BME280;54939;50.826;9.030;2024-01-07T00:58:43;98385.78;;;7.97;72.84
68137;BME280;54939;50.826;9.030;2024-01-07T00:59:13;98391.81;;;7.99;72.92
68137;BME280;54939;50.826;9.030;2024-01-07T00:59:46;98383.69;;;8.01;72.50
68137;BME280;54939;50.826;9.030;2024-01-07T01:00:16;98390.00;;;8.00;72.62
68137;BME280;54939;50.826;9.030;2024-01-07T01:00:47;98390.81;;;8.00;73.06
68137;BME280;54939;50.826;9.030;2024-01-07T01:01:17;98389.84;;;8.01;72.99
68137;BME280;54939;50.826;9.030;2024-01-07T01:01:47;98390.81;;;8.00;73.35
68137;BME280;54939;50.826;9.030;2024-01-07T01:02:17;98393.63;;;7.99;72.51
68137;BME280;54939;50.826;9.030;2024-01-07T01:02:47;98394.47;;;7.99;72.93
68137;BME280;54939;50.826;9.030;2024-01-07T01:03:18;98392.78;;;7.98;72.61
68137;BME280;54939;50.826;9.030;2024-01-07T01:03:48;98397.25;;;7.98;72.70
68137;BME280;54939;50.826;9.030;2024-01-07T01:04:18;98404.25;;;7.99;73.05
68137;BME280;54939;50.826;9.030;2024-01-07T01:04:49;98394.47;;;7.99;73.09
68137;BME280;54939;50.826;9.030;2024-01-07T01:05:19;98392.78;;;7.98;73.43
68137;BME280;54939;50.826;9.030;2024-01-07T01:05:50;98399.91;;;7.98;72.97
68137;BME280;54939;50.826;9.030;2024-01-07T01:06:20;98399.78;;;7.99;73.01
68137;BME280;54939;50.826;9.030;2024-01-07T01:06:50;98398.94;;;7.99;73.13
68137;BME280;54939;50.826;9.030;2024-01-07T01:07:20;98397.13;;;7.99;72.92
68137;BME280;54939;50.826;9.030;2024-01-07T01:07:50;98402.31;;;8.01;72.85
68137;BME280;54939;50.826;9.030;2024-01-07T01:08:22;98402.44;;;7.99;72.55
68137;BME280;54939;50.826;9.030;2024-01-07T01:08:53;98401.59;;;7.99;72.62
68137;BME280;54939;50.826;9.030;2024-01-07T01:09:23;98396.41;;;7.97;72.68
68137;BME280;54939;50.826;9.030;2024-01-07T01:09:53;98400.75;;;7.98;72.68
68137;BME280;54939;50.826;9.030;2024-01-07T01:10:24;98398.94;;;7.99;72.65
68137;BME280;54939;50.826;9.030;2024-01-07T01:10:54;98402.44;;;7.99;73.20
68137;BME280;54939;50.826;9.030;2024-01-07T01:11:24;98403.41;;;7.98;73.02
68137;BME280;54939;50.826;9.030;2024-01-07T01:11:54;98394.47;;;7.99;72.86
68137;BME280;54939;50.826;9.030;2024-01-07T01:12:24;98398.09;;;7.98;72.68
68137;BME280;54939;50.826;9.030;2024-01-07T01:12:55;98398.94;;;7.99;72.86
68137;BME280;54939;50.826;9.030;2024-01-07T01:13:25;98398.94;;;7.99;73.09
68137;BME280;54939;50.826;9.030;2024-01-07T01:13:55;98405.09;;;7.99;73.13
68137;BME280;54939;50.826;9.030;2024-01-07T01:14:25;98405.09;;;7.99;72.92
68137;BME280;54939;50.826;9.030;2024-01-07T01:14:55;98403.41;;;7.98;72.59
68137;BME280;54939;50.826;9.030;2024-01-07T01:15:26;98403.41;;;7.98;72.47
68137;BME280;54939;50.826;9.030;2024-01-07T01:15:56;98401.75;;;7.97;72.82
68137;BME280;54939;50.826;9.030;2024-01-07T01:16:26;98405.22;;;7.98;73.02
68137;BME280;54939;50.826;9.030;2024-01-07T01:16:56;98405.22;;;7.98;73.17
68137;BME280;54939;50.826;9.030;2024-01-07T01:17:26;98406.78;;;8.00;72.50
68137;BME280;54939;50.826;9.030;2024-01-07T01:17:57;98407.75;;;7.99;72.37
68137;BME280;54939;50.826;9.030;2024-01-07T01:18:28;98410.41;;;7.99;73.29
68137;BME280;54939;50.826;9.030;2024-01-07T01:18:58;98406.91;;;7.99;72.65
68137;BME280;54939;50.826;9.030;2024-01-07T01:19:28;98410.56;;;7.98;72.87
68137;BME280;54939;50.826;9.030;2024-01-07T01:20:01;98408.72;;;7.98;72.52
68137;BME280;54939;50.826;9.030;2024-01-07T01:20:31;98410.41;;;7.99;73.12
68137;BME280;54939;50.826;9.030;2024-01-07T01:21:01;98410.41;;;7.99;72.60
68137;BME280;54939;50.826;9.030;2024-01-07T01:21:32;98410.28;;;8.01;72.50
68137;BME280;54939;50.826;9.030;2024-01-07T01:22:02;98410.41;;;7.99;72.48
68137;BME280;54939;50.826;9.030;2024-01-07T01:22:32;98408.72;;;7.98;73.13
68137;BME280;54939;50.826;9.030;2024-01-07T01:23:02;98414.06;;;7.98;72.81
68137;BME280;54939;50.826;9.030;2024-01-07T01:23:33;98410.56;;;7.98;72.30
68137;BME280;54939;50.826;9.030;2024-01-07T01:24:03;98417.69;;;7.97;72.82
68137;BME280;54939;50.826;9.030;2024-01-07T01:24:33;98407.06;;;7.97;72.97
68137;BME280;54939;50.826;9.030;2024-01-07T01:25:03;98415.03;;;7.97;72.36
68137;BME280;54939;50.826;9.030;2024-01-07T01:25:34;98410.69;;;7.96;72.64
68137;BME280;54939;50.826;9.030;2024-01-07T01:26:05;98410.69;;;7.96;72.58
68137;BME280;54939;50.826;9.030;2024-01-07T01:26:36;98412.38;;;7.97;72.91
68137;BME280;54939;50.826;9.030;2024-01-07T01:27:06;98415.88;;;7.98;72.31
68137;BME280;54939;50.826;9.030;2024-01-07T01:27:36;98413.22;;;7.98;73.24
68137;BME280;54939;50.826;9.030;2024-01-07T01:28:06;98418.38;;;7.99;72.71
68137;BME280;54939;50.826;9.030;2024-01-07T01:28:37;98416.72;;;7.98;72.78
68137;BME280;54939;50.826;9.030;2024-01-07T01:29:07;98415.03;;;7.97;72.92
68137;BME280;54939;50.826;9.030;2024-01-07T01:29:37;98417.69;;;7.97;73.04
68137;BME280;54939;50.826;9.030;2024-01-07T01:30:07;98419.38;;;7.98;72.88
68137;BME280;54939;50.826;9.030;2024-01-07T01:30:38;98420.34;;;7.97;72.90
68137;BME280;54939;50.826;9.030;2024-01-07T01:31:08;98416.00;;;7.96;73.02
68137;BME280;54939;50.826;9.030;2024-01-07T01:31:42;98419.50;;;7.97;72.36
68137;BME280;54939;50.826;9.030;2024-01-07T01:32:12;98414.88;;;7.99;72.75
68137;BME280;54939;50.826;9.030;2024-01-07T01:32:42;98420.22;;;7.99;72.40
68137;BME280;54939;50.826;9.030;2024-01-07T01:33:13;98424.69;;;7.98;72.38
68137;BME280;54939;50.826;9.030;2024-01-07T01:33:43;98423.84;;;7.98;72.73
68137;BME280;54939;50.826;9.030;2024-01-07T01:34:13;98419.50;;;7.97;72.36
68137;BME280;54939;50.826;9.030;2024-01-07T01:34:43;98418.66;;;7.96;72.77
68137;BME280;54939;50.826;9.030;2024-01-07T01:35:14;98420.34;;;7.97;73.07
68137;BME280;54939;50.826;9.030;2024-01-07T01:35:44;98415.03;;;7.97;72.44
68137;BME280;54939;50.826;9.030;2024-01-07T01:36:14;98412.38;;;7.97;72.77
68137;BME280;54939;50.826;9.030;2024-01-07T01:36:44;98414.06;;;7.98;72.60
68137;BME280;54939;50.826;9.030;2024-01-07T01:37:14;98425.66;;;7.97;72.54
68137;BME280;54939;50.826;9.030;2024-01-07T01:37:45;98417.69;;;7.97;72.73
68137;BME280;54939;50.826;9.030;2024-01-07T01:38:15;98420.22;;;7.99;73.01
68137;BME280;54939;50.826;9.030;2024-01-07T01:38:45;98414.06;;;7.98;72.68
68137;BME280;54939;50.826;9.030;2024-01-07T01:39:15;98423.00;;;7.97;72.79
68137;BME280;54939;50.826;9.030;2024-01-07T01:39:46;98423.00;;;7.97;72.39
68137;BME280;54939;50.826;9.030;2024-01-07T01:40:17;98417.69;;;7.97;72.49
68137;BME280;54939;50.826;9.030;2024-01-07T01:40:51;98422.31;;;7.95;72.88
68137;BME280;54939;50.826;9.030;2024-01-07T01:41:21;98419.50;;;7.97;72.63
68137;BME280;54939;50.826;9.030;2024-01-07T01:41:54;98422.31;;;7.95;72.91
68137;BME280;54939;50.826;9.030;2024-01-07T01:42:24;98425.78;;;7.96;73.03
68137;BME280;54939;50.826;9.030;2024-01-07T01:42:55;98426.63;;;7.96;72.89
68137;BME280;54939;50.826;9.030;2024-01-07T01:43:25;98428.31;;;7.97;72.50
68137;BME280;54939;50.826;9.030;2024-01-07T01:43:57;98426.63;;;7.96;73.12
68137;BME280;54939;50.826;9.030;2024-01-07T01:44:27;98429.28;;;7.96;72.92
68137;BME280;54939;50.826;9.030;2024-01-07T01:44:58;98429.47;;;7.95;73.08
68137;BME280;54939;50.826;9.030;2024-01-07T01:45:31;98425.00;;;7.95;72.47
68137;BME280;54939;50.826;9.030;2024-01-07T01:46:01;98431.94;;;7.96;72.62
68137;BME280;54939;50.826;9.030;2024-01-07T01:46:32;98431.81;;;7.98;72.40
68137;BME280;54939;50.826;9.030;2024-01-07T01:47:02;98434.59;;;7.96;72.80
68137;BME280;54939;50.826;9.030;2024-01-07T01:47:33;98433.94;;;7.94;72.77
68137;BME280;54939;50.826;9.030;2024-01-07T01:48:03;98436.59;;;7.94;72.83
68137;BME280;54939;50.826;9.030;2024-01-07T01:48:35;98435.63;;;7.95;72.69
68137;BME280;54939;50.826;9.030;2024-01-07T01:49:06;98431.09;;;7.96;72.75
68137;BME280;54939;50.826;9.030;2024-01-07T01:49:36;98447.06;;;7.96;73.17
68137;BME280;54939;50.826;9.030;2024-01-07T01:50:08;98436.44;;;7.96;73.02
68137;BME280;54939;50.826;9.030;2024-01-07T01:50:38;98431.94;;;7.96;72.17
68137;BME280;54939;50.826;9.030;2024-01-07T01:51:08;98432.78;;;7.97;72.35
68137;BME280;54939;50.826;9.030;2024-01-07T01:51:39;98437.13;;;7.98;72.41
68137;BME280;54939;50.826;9.030;2024-01-07T01:52:09;98437.13;;;7.98;72.49
68137;BME280;54939;50.826;9.030;2024-01-07T01:52:40;98435.31;;;7.98;72.75
68137;BME280;54939;50.826;9.030;2024-01-07T01:53:10;98438.94;;;7.97;72.44
68137;BME280;54939;50.826;9.030;2024-01-07T01:53:40;98437.44;;;7.95;72.74
68137;BME280;54939;50.826;9.030;2024-01-07T01:54:11;98433.94;;;7.94;72.48
68137;BME280;54939;50.826;9.030;2024-01-07T01:54:41;98438.41;;;7.94;72.25
68137;BME280;54939;50.826;9.030;2024-01-07T01:55:11;98437.44;;;7.95;72.55
68137;BME280;54939;50.826;9.030;2024-01-07T01:55:42;98448.91;;;7.95;72.26
68137;BME280;54939;50.826;9.030;2024-01-07T01:56:12;98440.94;;;7.95;72.62
68137;BME280;54939;50.826;9.030;2024-01-07T01:56:43;98443.59;;;7.95;72.95
68137;BME280;54939;50.826;9.030;2024-01-07T01:57:15;98445.25;;;7.96;71.93
68137;BME280;54939;50.826;9.030;2024-01-07T01:57:47;98436.44;;;7.96;72.36
68137;BME280;54939;50.826;9.030;2024-01-07T01:58:17;98446.25;;;7.95;72.72
68137;BME280;54939;50.826;9.030;2024-01-07T01:58:48;98449.88;;;7.94;72.80
68137;BME280;54939;50.826;9.030;2024-01-07T01:59:20;98448.06;;;7.95;72.30
68137;BME280;54939;50.826;9.030;2024-01-07T01:59:50;98447.22;;;7.94;72.36
68137;BME280;54939;50.826;9.030;2024-01-07T02:00:21;98445.41;;;7.95;72.24
68137;BME280;54939;50.826;9.030;2024-01-07T02:00:51;98447.06;;;7.96;72.00
68137;BME280;54939;50.826;9.030;2024-01-07T02:01:22;98445.41;;;7.95;72.50
68137;BME280;54939;50.826;9.030;2024-01-07T02:01:53;98445.41;;;7.95;72.29
68137;BME280;54939;50.826;9.030;2024-01-07T02:02:23;98443.59;;;7.95;72.22
68137;BME280;54939;50.826;9.030;2024-01-07T02:02:53;98446.25;;;7.95;72.76
68137;BME280;54939;50.826;9.030;2024-01-07T02:03:24;98449.72;;;7.96;72.55
68137;BME280;54939;50.826;9.030;2024-01-07T02:03:55;98451.56;;;7.95;71.89
68137;BME280;54939;50.826;9.030;2024-01-07T02:04:25;98450.72;;;7.95;71.95
68137;BME280;54939;50.826;9.030;2024-01-07T02:04:55;98450.72;;;7.95;72.06
68137;BME280;54939;50.826;9.030;2024-01-07T02:05:26;98453.38;;;7.95;72.24
68137;BME280;54939;50.826;9.030;2024-01-07T02:05:56;98451.56;;;7.95;72.57
68137;BME280;54939;50.826;9.030;2024-01-07T02:06:27;98447.91;;;7.96;72.13
68137;BME280;54939;50.826;9.030;2024-01-07T02:06:57;98449.59;;;7.97;72.20
68137;BME280;54939;50.826;9.030;2024-01-07T02:07:28;98451.56;;;7.95;72.25
68137;BME280;54939;50.826;9.030;2024-01-07T02:07:59;98449.88;;;7.94;72.00
68137;BME280;54939;50.826;9.030;2024-01-07T02:08:29;98449.72;;;7.96;71.92
68137;BME280;54939;50.826;9.030;2024-01-07T02:09:00;98445.41;;;7.95;72.01
68137;BME280;54939;50.826;9.030;2024-01-07T02:09:30;98450.88;;;7.93;71.88
68137;BME280;54939;50.826;9.030;2024-01-07T02:10:00;98450.88;;;7.93;72.40
68137;BME280;54939;50.826;9.030;2024-01-07T02:10:30;98453.53;;;7.93;72.76
68137;BME280;54939;50.826;9.030;2024-01-07T02:12:07;98447.38;;;7.93;71.89
68137;BME280;54939;50.826;9.030;2024-01-07T02:12:41;98448.06;;;7.95;72.38
68137;BME280;54939;50.826;9.030;2024-01-07T02:13:11;98452.53;;;7.94;72.21
68137;BME280;54939;50.826;9.030;2024-01-07T02:13:42;98448.19;;;7.93;72.28
68137;BME280;54939;50.826;9.030;2024-01-07T02:14:12;98445.53;;;7.93;72.37
68137;BME280;54939;50.826;9.030;2024-01-07T02:14:42;98454.34;;;7.94;72.39
68137;BME280;54939;50.826;9.030;2024-01-07T02:15:12;98450.03;;;7.93;72.33
68137;BME280;54939;50.826;9.030;2024-01-07T02:15:43;98440.09;;;7.95;71.89
68137;BME280;54939;50.826;9.030;2024-01-07T02:16:13;98450.72;;;7.95;72.38
68137;BME280;54939;50.826;9.030;2024-01-07T02:16:44;98450.72;;;7.95;72.22
68137;BME280;54939;50.826;9.030;2024-01-07T02:17:14;98448.91;;;7.95;72.16
68137;BME280;54939;50.826;9.030;2024-01-07T02:17:45;98451.69;;;7.94;72.32
68137;BME280;54939;50.826;9.030;2024-01-07T02:18:15;98450.03;;;7.93;72.04
68137;BME280;54939;50.826;9.030;2024-01-07T02:18:45;98450.88;;;7.93;72.27
68137;BME280;54939;50.826;9.030;2024-01-07T02:19:15;98447.38;;;7.93;72.20
68137;BME280;54939;50.826;9.030;2024-01-07T02:19:46;98452.69;;;7.93;72.35
68137;BME280;54939;50.826;9.030;2024-01-07T02:20:16;98450.03;;;7.93;72.24
68137;BME280;54939;50.826;9.030;2024-01-07T02:20:46;98442.88;;;7.93;72.09
68137;BME280;54939;50.826;9.030;2024-01-07T02:21:17;98457.03;;;7.94;71.68
68137;BME280;54939;50.826;9.030;2024-01-07T02:21:47;98453.53;;;7.93;72.16
68137;BME280;54939;50.826;9.030;2024-01-07T02:22:17;98451.56;;;7.95;71.75
68137;BME280;54939;50.826;9.030;2024-01-07T02:22:49;98455.03;;;7.96;72.30
68137;BME280;54939;50.826;9.030;2024-01-07T02:23:19;98454.06;;;7.97;71.80
68137;BME280;54939;50.826;9.030;2024-01-07T02:23:49;98454.06;;;7.97;72.01
68137;BME280;54939;50.826;9.030;2024-01-07T02:24:19;98455.03;;;7.96;71.70
68137;BME280;54939;50.826;9.030;2024-01-07T02:24:49;98456.03;;;7.95;72.15
68137;BME280;54939;50.826;9.030;2024-01-07T02:25:20;98459.81;;;7.92;72.08
68137;BME280;54939;50.826;9.030;2024-01-07T02:25:50;98452.53;;;7.94;72.40
68137;BME280;54939;50.826;9.030;2024-01-07T02:26:23;98462.19;;;7.95;71.84
68137;BME280;54939;50.826;9.030;2024-01-07T02:26:54;98459.69;;;7.94;72.16
68137;BME280;54939;50.826;9.030;2024-01-07T02:27:24;98451.84;;;7.92;71.82
68137;BME280;54939;50.826;9.030;2024-01-07T02:27:54;98462.19;;;7.95;72.28
68137;BME280;54939;50.826;9.030;2024-01-07T02:28:24;98459.53;;;7.95;71.99
68137;BME280;54939;50.826;9.030;2024-01-07T02:28:54;98464.00;;;7.95;71.87
68137;BME280;54939;50.826;9.030;2024-01-07T02:29:25;98459.69;;;7.94;72.04
68137;BME280;54939;50.826;9.030;2024-01-07T02:29:55;98462.34;;;7.94;72.04
68137;BME280;54939;50.826;9.030;2024-01-07T02:30:26;98465.84;;;7.94;71.85
68137;BME280;54939;50.826;9.030;2024-01-07T02:30:57;98462.34;;;7.94;71.80
68137;BME280;54939;50.826;9.030;2024-01-07T02:31:27;98467.66;;;7.94;72.41
68137;BME280;54939;50.826;9.030;2024-01-07T02:31:57;98458.00;;;7.93;71.98
68137;BME280;54939;50.826;9.030;2024-01-07T02:32:27;98463.31;;;7.93;72.01
68137;BME280;54939;50.826;9.030;2024-01-07T02:33:00;98464.16;;;7.93;72.25
68137;BME280;54939;50.826;9.030;2024-01-07T02:33:31;98463.19;;;7.94;72.03
68137;BME280;54939;50.826;9.030;2024-01-07T02:34:01;98466.66;;;7.95;72.04
68137;BME280;54939;50.826;9.030;2024-01-07T02:34:31;98465.97;;;7.93;71.64
68137;BME280;54939;50.826;9.030;2024-01-07T02:35:01;98465.13;;;7.92;71.89
68137;BME280;54939;50.826;9.030;2024-01-07T02:35:32;98462.47;;;7.92;71.83
68137;BME280;54939;50.826;9.030;2024-01-07T02:36:02;98467.78;;;7.92;72.02
68137;BME280;54939;50.826;9.030;2024-01-07T02:36:32;98469.47;;;7.93;71.51
68137;BME280;54939;50.826;9.030;2024-01-07T02:37:02;98472.13;;;7.93;71.69
68137;BME280;54939;50.826;9.030;2024-01-07T02:37:33;98459.81;;;7.92;71.66
68137;BME280;54939;50.826;9.030;2024-01-07T02:38:03;98472.13;;;7.93;72.57
68137;BME280;54939;50.826;9.030;2024-01-07T02:38:33;98464.16;;;7.93;71.68
68137;BME280;54939;50.826;9.030;2024-01-07T02:39:03;98466.09;;;7.91;71.66
68137;BME280;54939;50.826;9.030;2024-01-07T02:39:34;98466.94;;;7.91;71.75
68137;BME280;54939;50.826;9.030;2024-01-07T02:40:04;98467.78;;;7.92;71.74
68137;BME280;54939;50.826;9.030;2024-01-07T02:40:34;98469.47;;;7.93;71.87
68137;BME280;54939;50.826;9.030;2024-01-07T02:41:05;98467.78;;;7.92;71.78
68137;BME280;54939;50.826;9.030;2024-01-07T02:41:35;98473.94;;;7.93;72.30
68137;BME280;54939;50.826;9.030;2024-01-07T02:42:05;98472.41;;;7.90;71.88
68137;BME280;54939;50.826;9.030;2024-01-07T02:42:35;98465.25;;;7.90;72.36
68137;BME280;54939;50.826;9.030;2024-01-07T02:43:05;98478.56;;;7.90;71.97
68137;BME280;54939;50.826;9.030;2024-01-07T02:43:36;98476.72;;;7.91;71.73
68137;BME280;54939;50.826;9.030;2024-01-07T02:44:06;98474.22;;;7.89;71.92
68137;BME280;54939;50.826;9.030;2024-01-07T02:44:36;98473.38;;;7.89;72.16